sensor_id;sensor_type;location;lat;lon;timestamp;temperature;humidity
77056;SHT30;65983;44.918;8.614;2023-01-31T15:44:24;18.70;60.64
77056;SHT30;65983;44.918;8.614;2023-01-31T15:47:29;18.68;62.88
77056;SHT30;65983;44.918;8.614;2023-01-31T15:50:33;18.84;69.66
77056;SHT30;65983;44.918;8.614;2023-01-31T15:53:36;18.89;59.89
77056;SHT30;65983;44.918;8.614;2023-01-31T15:56:41;18.83;57.67
77056;SHT30;65983;44.918;8.614;2023-01-31T15:59:45;18.77;57.97
77056;SHT30;65983;44.918;8.614;2023-01-31T16:02:51;18.74;57.76
77056;SHT30;65983;44.918;8.614;2023-01-31T16:06:03;18.94;61.14
77056;SHT30;65983;44.918;8.614;2023-01-31T16:09:30;18.97;58.29
77056;SHT30;65983;44.918;8.614;2023-01-31T16:12:39;19.01;57.19
77056;SHT30;67471;44.918;8.614;2023-01-31T16:15:43;19.04;57.27
77056;SHT30;67471;44.918;8.614;2023-01-31T16:18:51;18.89;56.60
77056;SHT30;67471;44.918;8.614;2023-01-31T16:21:57;18.88;58.99
77056;SHT30;67471;44.918;8.614;2023-01-31T16:25:02;18.94;58.08
77056;SHT30;67471;44.918;8.614;2023-01-31T16:37:01;13.96;48.45
77056;SHT30;67471;44.918;8.614;2023-01-31T16:40:20;13.42;49.78
77056;SHT30;67471;44.918;8.614;2023-01-31T16:46:39;12.39;52.08
77056;SHT30;67471;44.918;8.614;2023-01-31T16:49:42;12.02;53.20
77056;SHT30;67471;44.918;8.614;2023-01-31T16:52:48;11.74;54.00
77056;SHT30;67471;44.918;8.614;2023-01-31T16:56:19;11.41;55.10
77056;SHT30;67471;44.918;8.614;2023-01-31T17:02:39;10.76;56.90
77056;SHT30;67471;44.918;8.614;2023-01-31T17:05:43;10.67;56.78
77056;SHT30;67471;44.918;8.614;2023-01-31T17:08:47;10.57;57.06
77056;SHT30;67471;44.918;8.614;2023-01-31T17:11:52;10.40;57.21
77056;SHT30;67471;44.918;8.614;2023-01-31T17:14:56;10.31;57.31
77056;SHT30;67471;44.918;8.614;2023-01-31T17:18:00;10.42;56.99
77056;SHT30;67471;44.918;8.614;2023-01-31T17:21:04;10.38;57.18
77056;SHT30;67471;44.918;8.614;2023-01-31T17:24:19;10.18;57.98
77056;SHT30;67471;44.918;8.614;2023-01-31T17:27:25;10.25;58.24
77056;SHT30;67471;44.918;8.614;2023-01-31T17:30:29;10.14;58.79
77056;SHT30;67471;44.918;8.614;2023-01-31T17:33:33;10.13;58.68
77056;SHT30;67471;44.918;8.614;2023-01-31T17:36:37;10.07;58.82
77056;SHT30;67471;44.918;8.614;2023-01-31T17:39:41;10.04;58.90
77056;SHT30;67471;44.918;8.614;2023-01-31T17:42:45;10.04;59.26
77056;SHT30;67471;44.918;8.614;2023-01-31T17:45:49;9.92;59.65
77056;SHT30;67471;44.918;8.614;2023-01-31T17:48:53;9.80;59.69
77056;SHT30;67471;44.918;8.614;2023-01-31T17:51:57;9.78;59.67
77056;SHT30;67471;44.918;8.614;2023-01-31T17:55:01;9.75;60.04
77056;SHT30;67471;44.918;8.614;2023-01-31T17:58:05;9.58;60.18
77056;SHT30;67471;44.918;8.614;2023-01-31T18:01:10;9.39;60.28
77056;SHT30;67471;44.918;8.614;2023-01-31T18:04:15;9.30;60.49
77056;SHT30;67471;44.918;8.614;2023-01-31T18:07:19;9.31;60.55
77056;SHT30;67471;44.918;8.614;2023-01-31T18:10:23;9.17;60.85
77056;SHT30;67471;44.918;8.614;2023-01-31T18:13:26;9.17;60.90
77056;SHT30;67471;44.918;8.614;2023-01-31T18:16:31;9.14;61.12
77056;SHT30;67471;44.918;8.614;2023-01-31T18:19:35;9.03;61.49
77056;SHT30;67471;44.918;8.614;2023-01-31T18:22:39;8.96;61.65
77056;SHT30;67471;44.918;8.614;2023-01-31T18:25:43;8.91;61.70
77056;SHT30;67471;44.918;8.614;2023-01-31T18:28:46;8.84;62.08
77056;SHT30;67471;44.918;8.614;2023-01-31T18:31:54;8.80;62.16
77056;SHT30;67471;44.918;8.614;2023-01-31T18:35:00;8.60;62.82
77056;SHT30;67471;44.918;8.614;2023-01-31T18:38:03;8.63;62.17
77056;SHT30;67471;44.918;8.614;2023-01-31T18:41:11;8.41;62.12
77056;SHT30;67471;44.918;8.614;2023-01-31T18:44:16;8.31;62.00
77056;SHT30;67471;44.918;8.614;2023-01-31T18:47:20;8.12;62.40
77056;SHT30;67471;44.918;8.614;2023-01-31T18:50:24;8.06;62.89
77056;SHT30;67471;44.918;8.614;2023-01-31T18:53:27;8.02;62.84
77056;SHT30;67471;44.918;8.614;2023-01-31T18:56:31;7.99;63.02
77056;SHT30;67471;44.918;8.614;2023-01-31T18:59:35;7.90;62.95
77056;SHT30;67471;44.918;8.614;2023-01-31T19:02:39;7.87;63.18
77056;SHT30;67471;44.918;8.614;2023-01-31T19:05:43;7.71;63.66
77056;SHT30;67471;44.918;8.614;2023-01-31T19:08:48;7.47;64.50
77056;SHT30;67471;44.918;8.614;2023-01-31T19:11:52;7.47;64.19
77056;SHT30;67471;44.918;8.614;2023-01-31T19:14:56;7.50;64.39
77056;SHT30;67471;44.918;8.614;2023-01-31T19:18:00;7.56;64.03
77056;SHT30;67471;44.918;8.614;2023-01-31T19:24:20;7.26;65.88
77056;SHT30;67471;44.918;8.614;2023-01-31T19:27:24;7.34;65.67
77056;SHT30;67471;44.918;8.614;2023-01-31T19:30:27;7.43;65.49
77056;SHT30;67471;44.918;8.614;2023-01-31T19:33:31;7.29;66.36
77056;SHT30;67471;44.918;8.614;2023-01-31T19:36:38;7.54;65.46
77056;SHT30;67471;44.918;8.614;2023-01-31T19:39:42;7.71;64.91
77056;SHT30;67471;44.918;8.614;2023-01-31T19:42:46;7.71;64.88
77056;SHT30;67471;44.918;8.614;2023-01-31T19:45:50;7.70;65.06
77056;SHT30;67471;44.918;8.614;2023-01-31T19:48:55;7.78;64.97
77056;SHT30;67471;44.918;8.614;2023-01-31T19:51:58;7.94;64.55
77056;SHT30;67471;44.918;8.614;2023-01-31T19:55:03;8.03;64.43
77056;SHT30;67471;44.918;8.614;2023-01-31T19:58:07;8.09;64.49
77056;SHT30;67471;44.918;8.614;2023-01-31T20:01:14;8.06;64.07
77056;SHT30;67471;44.918;8.614;2023-01-31T20:04:18;8.05;63.97
77056;SHT30;67471;44.918;8.614;2023-01-31T20:07:22;7.80;64.54
77056;SHT30;67471;44.918;8.614;2023-01-31T20:10:26;7.73;64.49
77056;SHT30;67471;44.918;8.614;2023-01-31T20:13:29;7.69;64.81
77056;SHT30;67471;44.918;8.614;2023-01-31T20:16:33;7.57;65.44
77056;SHT30;67471;44.918;8.614;2023-01-31T20:19:37;7.53;65.55
77056;SHT30;67471;44.918;8.614;2023-01-31T20:22:41;7.47;65.54
77056;SHT30;67471;44.918;8.614;2023-01-31T20:25:49;7.36;65.65
77056;SHT30;67471;44.918;8.614;2023-01-31T20:28:53;7.37;65.51
77056;SHT30;67471;44.918;8.614;2023-01-31T20:31:56;7.27;65.75
77056;SHT30;67471;44.918;8.614;2023-01-31T20:35:00;7.29;65.56
77056;SHT30;67471;44.918;8.614;2023-01-31T20:38:04;7.26;65.41
77056;SHT30;67471;44.918;8.614;2023-01-31T20:41:08;7.19;65.60
77056;SHT30;67471;44.918;8.614;2023-01-31T20:44:12;7.16;65.53
77056;SHT30;67471;44.918;8.614;2023-01-31T20:47:15;7.03;65.47
77056;SHT30;67471;44.918;8.614;2023-01-31T20:50:19;6.82;65.92
77056;SHT30;67471;44.918;8.614;2023-01-31T20:53:24;6.79;65.39
77056;SHT30;67471;44.918;8.614;2023-01-31T20:56:28;6.61;65.97
77056;SHT30;67471;44.918;8.614;2023-01-31T20:59:31;6.61;65.69
77056;SHT30;67471;44.918;8.614;2023-01-31T21:02:35;6.48;65.82
77056;SHT30;67471;44.918;8.614;2023-01-31T21:05:40;6.37;66.00
77056;SHT30;67471;44.918;8.614;2023-01-31T21:08:43;6.30;66.49
77056;SHT30;67471;44.918;8.614;2023-01-31T21:11:47;6.31;66.54
77056;SHT30;67471;44.918;8.614;2023-01-31T21:14:51;6.29;66.26
77056;SHT30;67471;44.918;8.614;2023-01-31T21:17:55;6.17;66.61
77056;SHT30;67471;44.918;8.614;2023-01-31T21:21:03;6.26;66.46
77056;SHT30;67471;44.918;8.614;2023-01-31T21:24:09;6.20;66.91
77056;SHT30;67471;44.918;8.614;2023-01-31T21:27:13;6.11;67.31
77056;SHT30;67471;44.918;8.614;2023-01-31T21:30:19;6.27;66.98
77056;SHT30;67471;44.918;8.614;2023-01-31T21:33:23;6.21;67.09
77056;SHT30;67471;44.918;8.614;2023-01-31T21:36:27;6.19;67.23
77056;SHT30;67471;44.918;8.614;2023-01-31T21:39:31;6.21;67.23
77056;SHT30;67471;44.918;8.614;2023-01-31T21:42:35;6.33;67.11
77056;SHT30;67471;44.918;8.614;2023-01-31T21:45:38;6.38;66.74
77056;SHT30;67471;44.918;8.614;2023-01-31T21:48:42;6.29;67.06
77056;SHT30;67471;44.918;8.614;2023-01-31T21:51:46;6.34;67.40
77056;SHT30;67471;44.918;8.614;2023-01-31T21:54:50;6.23;67.69
77056;SHT30;67471;44.918;8.614;2023-01-31T21:57:54;6.33;67.60
77056;SHT30;67471;44.918;8.614;2023-01-31T22:01:18;6.37;67.84
77056;SHT30;67471;44.918;8.614;2023-01-31T22:04:22;6.29;68.19
77056;SHT30;67471;44.918;8.614;2023-01-31T22:07:26;6.33;67.63
77056;SHT30;67471;44.918;8.614;2023-01-31T22:10:30;6.40;67.34
77056;SHT30;67471;44.918;8.614;2023-01-31T22:13:35;6.36;67.28
77056;SHT30;67471;44.918;8.614;2023-01-31T22:16:39;6.37;66.89
77056;SHT30;67471;44.918;8.614;2023-01-31T22:19:43;6.26;67.42
77056;SHT30;67471;44.918;8.614;2023-01-31T22:22:47;6.21;67.36
77056;SHT30;67471;44.918;8.614;2023-01-31T22:25:51;6.29;67.21
77056;SHT30;67471;44.918;8.614;2023-01-31T22:28:57;6.21;67.22
77056;SHT30;67471;44.918;8.614;2023-01-31T22:32:01;6.19;67.25
77056;SHT30;67471;44.918;8.614;2023-01-31T22:35:06;6.06;67.61
77056;SHT30;67471;44.918;8.614;2023-01-31T22:38:09;5.99;67.58
77056;SHT30;67471;44.918;8.614;2023-01-31T22:41:14;5.83;68.42
77056;SHT30;67471;44.918;8.614;2023-01-31T22:44:18;5.82;68.38
77056;SHT30;67471;44.918;8.614;2023-01-31T22:47:23;5.63;69.15
77056;SHT30;67471;44.918;8.614;2023-01-31T22:50:26;5.68;69.25
77056;SHT30;67471;44.918;8.614;2023-01-31T22:53:32;5.59;69.40
77056;SHT30;67471;44.918;8.614;2023-01-31T22:56:36;5.66;68.62
77056;SHT30;67471;44.918;8.614;2023-01-31T22:59:40;5.59;68.96
77056;SHT30;67471;44.918;8.614;2023-01-31T23:02:43;5.54;69.41
77056;SHT30;67471;44.918;8.614;2023-01-31T23:05:47;5.48;70.13
77056;SHT30;67471;44.918;8.614;2023-01-31T23:08:52;5.41;70.37
77056;SHT30;67471;44.918;8.614;2023-01-31T23:11:56;5.55;70.08
77056;SHT30;67471;44.918;8.614;2023-01-31T23:14:59;5.55;69.74
77056;SHT30;67471;44.918;8.614;2023-01-31T23:18:04;5.59;68.31
77056;SHT30;67471;44.918;8.614;2023-01-31T23:21:10;5.37;68.88
77056;SHT30;67471;44.918;8.614;2023-01-31T23:24:13;5.24;69.00
77056;SHT30;67471;44.918;8.614;2023-01-31T23:27:17;5.00;69.29
77056;SHT30;67471;44.918;8.614;2023-01-31T23:30:22;4.90;68.46
77056;SHT30;67471;44.918;8.614;2023-01-31T23:33:26;4.66;68.91
77056;SHT30;67471;44.918;8.614;2023-01-31T23:36:30;4.46;69.80
77056;SHT30;67471;44.918;8.614;2023-01-31T23:39:33;4.28;70.65
77056;SHT30;67471;44.918;8.614;2023-01-31T23:42:37;4.34;71.05
77056;SHT30;67471;44.918;8.614;2023-01-31T23:45:41;4.41;71.21
77056;SHT30;67471;44.918;8.614;2023-01-31T23:48:45;4.44;71.13
77056;SHT30;67471;44.918;8.614;2023-01-31T23:51:48;4.55;70.97
77056;SHT30;67471;44.918;8.614;2023-01-31T23:54:52;4.50;71.09
77056;SHT30;67471;44.918;8.614;2023-01-31T23:57:56;4.53;70.58
